Time;durP1;ratioP1;P1;durP2;ratioP2;P2;SDS_P1;SDS_P2;PMS_P1;PMS_P2;Temp;Humidity;BMP_temperature;BMP_pressure;BME280_temperature;BME280_humidity;BME280_pressure;Samples;Min_cycle;Max_cycle;Signal;HPM_P1;HPM_P2
2022/11/18 00:00:30;;;;;;;10.52;9.48;;;5.30;99.90;;;;;;5071251;28;20048;-54
2022/11/18 00:02:56;;;;;;;11.93;10.40;;;5.30;99.90;;;;;;5070114;28;20029;-53
2022/11/18 00:05:22;;;;;;;10.45;9.40;;;5.40;99.90;;;;;;5071303;28;20053;-53
2022/11/18 00:07:48;;;;;;;10.80;9.77;;;5.40;99.90;;;;;;5074088;28;20521;-54
2022/11/18 00:10:13;;;;;;;10.20;8.68;;;5.50;99.90;;;;;;5075005;28;20016;-52
2022/11/18 00:15:23;;;;;;;9.40;7.75;;;5.60;99.90;;;;;;5075160;28;20142;-49
2022/11/18 00:17:48;;;;;;;9.57;8.60;;;5.60;99.90;;;;;;5074925;28;20551;-54
2022/11/18 00:20:14;;;;;;;9.13;8.23;;;5.60;99.90;;;;;;5074900;28;20447;-53
2022/11/18 00:22:40;;;;;;;10.73;7.22;;;5.70;99.90;;;;;;5074849;28;20029;-51
2022/11/18 00:25:06;;;;;;;10.68;7.85;;;5.60;99.90;;;;;;5074929;28;20028;-54
2022/11/18 00:27:31;;;;;;;10.02;8.65;;;5.60;99.90;;;;;;5074645;28;20121;-52
2022/11/18 00:29:57;;;;;;;11.93;8.60;;;5.60;99.90;;;;;;5074928;28;20104;-53
2022/11/18 00:32:23;;;;;;;10.10;9.10;;;5.60;99.90;;;;;;5074761;28;20059;-54
2022/11/18 00:34:49;;;;;;;9.70;8.15;;;5.60;99.90;;;;;;5074645;28;20020;-53
2022/11/18 00:37:14;;;;;;;9.88;8.85;;;5.60;99.90;;;;;;5074582;28;20020;-51
2022/11/18 00:39:40;;;;;;;9.60;8.65;;;5.60;99.90;;;;;;5074377;28;20032;-54
2022/11/18 00:44:49;;;;;;;7.53;6.78;;;5.70;99.90;;;;;;5074505;28;20086;-50
2022/11/18 00:47:15;;;;;;;10.40;7.78;;;5.70;99.90;;;;;;5074501;28;20032;-52
2022/11/18 00:49:41;;;;;;;11.30;8.13;;;5.80;99.90;;;;;;5074408;28;20027;-54
2022/11/18 00:52:07;;;;;;;11.88;9.02;;;5.80;99.90;;;;;;5074497;28;20024;-51
2022/11/18 00:54:32;;;;;;;13.75;9.55;;;5.80;99.90;;;;;;5074359;28;20033;-54
2022/11/18 00:56:58;;;;;;;12.30;9.02;;;5.70;99.90;;;;;;5074309;28;20020;-52
2022/11/18 00:59:24;;;;;;;14.85;7.97;;;5.70;99.90;;;;;;5074441;28;20035;-52
2022/11/18 01:01:50;;;;;;;12.40;8.77;;;5.60;99.90;;;;;;5074077;28;20381;-51
2022/11/18 01:04:16;;;;;;;12.65;9.02;;;5.60;99.90;;;;;;5074238;28;20111;-51
2022/11/18 01:06:42;;;;;;;14.93;8.10;;;5.60;99.90;;;;;;5074010;28;20059;-50
2022/11/18 01:09:07;;;;;;;11.55;7.82;;;5.70;99.90;;;;;;5072788;28;20025;-50
2022/11/18 01:14:17;;;;;;;16.75;10.25;;;5.70;99.90;;;;;;5074122;28;20090;-50
2022/11/18 01:16:43;;;;;;;9.32;7.93;;;5.70;99.90;;;;;;5073911;28;20029;-51
2022/11/18 01:19:09;;;;;;;12.27;9.02;;;5.80;99.90;;;;;;5072599;28;20044;-50
2022/11/18 01:21:35;;;;;;;10.57;8.93;;;5.80;99.90;;;;;;5073684;28;20051;-50
2022/11/18 01:24:00;;;;;;;10.73;9.55;;;5.70;99.90;;;;;;5073792;28;20134;-51
2022/11/18 01:26:26;;;;;;;11.15;8.70;;;5.60;99.90;;;;;;5073811;28;20027;-51
2022/11/18 01:28:56;;;;;;;11.95;9.77;;;5.70;99.90;;;;;;5073614;28;20028;-52
2022/11/18 01:31:22;;;;;;;12.20;8.20;;;5.70;99.90;;;;;;5073743;28;20025;-53
2022/11/18 01:33:47;;;;;;;10.63;9.52;;;5.70;99.90;;;;;;5073456;28;20070;-50
2022/11/18 01:36:19;;;;;;;10.75;9.65;;;5.80;99.90;;;;;;5073667;28;20051;-51
2022/11/18 01:38:45;;;;;;;9.43;8.52;;;5.70;99.90;;;;;;5073378;28;20024;-52
2022/11/18 01:41:11;;;;;;;10.38;9.38;;;5.80;99.90;;;;;;5073602;28;20162;-53
2022/11/18 01:43:51;;;;;;;10.95;9.85;;;5.80;99.90;;;;;;5073298;28;20033;-51
2022/11/18 01:46:17;;;;;;;11.52;10.32;;;5.90;99.90;;;;;;5073476;28;20111;-55
2022/11/18 01:48:43;;;;;;;11.73;10.52;;;5.90;99.90;;;;;;5071975;28;20029;-52
2022/11/18 01:51:15;;;;;;;11.77;10.57;;;5.90;99.90;;;;;;5073458;28;20020;-51
2022/11/18 01:53:49;;;;;;;11.50;10.30;;;5.90;99.90;;;;;;5073107;28;20016;-51
2022/11/18 01:56:18;;;;;;;11.20;9.93;;;5.90;99.90;;;;;;5073331;28;20074;-50
2022/11/18 01:58:53;;;;;;;10.50;9.45;;;6.00;99.90;;;;;;5073117;28;20029;-52
2022/11/18 02:01:18;;;;;;;11.98;10.75;;;6.00;99.90;;;;;;5073062;28;20043;-51
2022/11/18 02:03:45;;;;;;;11.55;10.35;;;6.00;99.90;;;;;;5072913;28;20036;-50
2022/11/18 02:06:12;;;;;;;10.93;9.73;;;6.00;99.90;;;;;;5071680;28;20553;-50
2022/11/18 02:08:39;;;;;;;11.30;10.20;;;6.00;99.90;;;;;;5072857;28;20929;-51
2022/11/18 02:11:49;;;;;;;11.25;10.05;;;6.00;99.90;;;;;;5071607;28;20029;-50
2022/11/18 02:13:56;;;;;;;11.13;9.98;;;6.00;99.90;;;;;;5072609;28;20040;-50
2022/11/18 02:16:44;;;;;;;12.57;10.00;;;5.90;99.90;;;;;;5072915;28;20032;-52
2022/11/18 02:19:16;;;;;;;12.52;10.73;;;5.90;99.90;;;;;;5051091;28;20193;-50
2022/11/18 02:22:02;;;;;;;12.38;10.45;;;5.90;99.90;;;;;;5072525;28;20063;-52
2022/11/18 02:25:01;;;;;;;11.20;10.00;;;6.00;99.90;;;;;;5072803;28;20384;-52
2022/11/18 02:27:41;;;;;;;11.50;10.30;;;6.00;99.90;;;;;;5072158;28;20021;-50
2022/11/18 02:30:15;;;;;;;11.45;10.25;;;5.90;99.90;;;;;;5071243;28;20082;-51
2022/11/18 02:32:56;;;;;;;11.82;10.30;;;5.90;99.90;;;;;;5071439;28;20028;-51
2022/11/18 02:35:41;;;;;;;13.10;11.77;;;5.90;99.90;;;;;;5071517;28;20016;-51
2022/11/18 02:38:21;;;;;;;14.77;10.82;;;5.90;99.90;;;;;;5071510;28;20017;-53
2022/11/18 02:40:51;;;;;;;11.98;9.77;;;5.90;99.90;;;;;;5071348;28;20024;-51
2022/11/18 02:43:27;;;;;;;14.45;9.52;;;5.80;99.90;;;;;;5071518;28;20036;-52
2022/11/18 02:45:59;;;;;;;12.00;10.65;;;5.80;99.90;;;;;;5071251;28;20028;-53
2022/11/18 02:48:28;;;;;;;9.98;8.98;;;5.80;99.90;;;;;;5071298;28;20115;-53
2022/11/18 02:50:55;;;;;;;10.35;9.20;;;5.70;99.90;;;;;;5071121;28;20016;-50
2022/11/18 02:53:23;;;;;;;11.10;9.20;;;5.80;99.90;;;;;;5071308;28;20054;-51
2022/11/18 02:55:50;;;;;;;11.20;9.02;;;5.80;99.90;;;;;;5071754;28;20147;-54
2022/11/18 02:58:19;;;;;;;13.63;9.75;;;5.70;99.90;;;;;;5072098;28;20025;-52
2022/11/18 03:00:55;;;;;;;11.45;9.73;;;5.70;99.90;;;;;;5071854;28;20077;-50
2022/11/18 03:03:33;;;;;;;13.23;10.45;;;5.60;99.90;;;;;;5072041;28;20028;-53
2022/11/18 03:06:05;;;;;;;15.48;11.32;;;5.50;99.90;;;;;;5071705;28;20040;-50
2022/11/18 03:08:57;;;;;;;15.10;10.32;;;5.60;99.90;;;;;;5070758;28;20112;-53
2022/11/18 03:11:27;;;;;;;19.33;11.68;;;5.70;99.90;;;;;;5070755;28;20044;-49
2022/11/18 03:14:07;;;;;;;13.50;10.68;;;5.70;99.90;;;;;;5070418;28;20098;-50
2022/11/18 03:16:58;;;;;;;15.55;11.52;;;5.70;99.90;;;;;;5069197;28;20455;-53
2022/11/18 03:19:32;;;;;;;13.07;10.40;;;5.80;99.90;;;;;;5070505;28;20102;-55
2022/11/18 03:22:18;;;;;;;13.40;11.60;;;5.80;99.90;;;;;;5069204;28;20025;-51
2022/11/18 03:24:56;;;;;;;13.10;10.50;;;5.90;99.90;;;;;;5070410;28;20054;-51
2022/11/18 03:27:51;;;;;;;14.10;10.32;;;5.90;99.90;;;;;;5070528;28;20107;-52
2022/11/18 03:30:20;;;;;;;11.40;9.23;;;5.90;99.90;;;;;;5070172;28;20039;-50
2022/11/18 03:32:58;;;;;;;15.23;10.32;;;5.90;99.90;;;;;;5069062;28;20393;-52
2022/11/18 03:35:28;;;;;;;12.00;10.10;;;6.00;99.90;;;;;;5070456;28;20066;-52
2022/11/18 03:38:15;;;;;;;12.80;9.65;;;5.90;99.90;;;;;;5069018;28;20028;-50
2022/11/18 03:40:47;;;;;;;29.50;10.68;;;6.00;99.90;;;;;;5069808;28;20025;-50
2022/11/18 03:43:18;;;;;;;13.73;8.80;;;6.00;99.90;;;;;;5070165;28;20380;-50
2022/11/18 03:45:48;;;;;;;11.20;9.30;;;6.00;99.90;;;;;;5070171;28;20403;-53
2022/11/18 03:48:15;;;;;;;12.43;9.35;;;6.00;99.90;;;;;;5068933;28;20036;-50
2022/11/18 03:51:08;;;;;;;11.93;9.63;;;6.00;99.90;;;;;;5070114;28;20444;-51
2022/11/18 03:53:38;;;;;;;14.05;8.93;;;6.00;99.90;;;;;;5068937;28;20037;-50
2022/11/18 03:56:14;;;;;;;12.93;9.57;;;6.00;99.90;;;;;;5071143;28;20048;-52
2022/11/18 03:58:53;;;;;;;17.60;8.80;;;6.00;99.90;;;;;;5071284;28;20029;-51
2022/11/18 04:01:47;;;;;;;12.82;9.25;;;6.10;99.90;;;;;;5071386;28;20031;-51
2022/11/18 04:04:13;;;;;;;11.45;8.88;;;6.10;99.90;;;;;;5067140;28;20039;-51
2022/11/18 04:06:47;;;;;;;14.20;9.68;;;6.10;99.90;;;;;;5071021;28;20031;-50
2022/11/18 04:09:35;;;;;;;14.07;8.98;;;6.10;99.90;;;;;;5070077;28;20025;-52
2022/11/18 04:12:09;;;;;;;10.43;9.00;;;6.10;99.90;;;;;;5071135;28;20056;-51
2022/11/18 04:14:41;;;;;;;78.45;37.28;;;6.10;99.90;;;;;;5071231;28;20024;-50
2022/11/18 04:17:09;;;;;;;26.70;12.88;;;6.20;99.90;;;;;;5069782;28;20039;-49
2022/11/18 04:19:35;;;;;;;102.88;41.83;;;6.20;99.90;;;;;;5070774;28;20045;-53
2022/11/18 04:22:00;;;;;;;25.88;16.65;;;6.20;99.90;;;;;;5071127;28;20431;-50
2022/11/18 04:24:26;;;;;;;32.90;17.55;;;6.20;99.90;;;;;;5071209;28;20020;-50
2022/11/18 04:26:51;;;;;;;44.50;21.45;;;6.20;99.90;;;;;;5070742;28;20074;-51
2022/11/18 04:29:17;;;;;;;50.92;24.65;;;6.20;99.90;;;;;;5071166;28;20029;-52
2022/11/18 04:31:43;;;;;;;46.63;25.30;;;6.20;99.90;;;;;;5070965;28;20056;-51
2022/11/18 04:34:08;;;;;;;23.50;17.33;;;6.20;99.90;;;;;;5071045;28;20027;-51
2022/11/18 04:36:34;;;;;;;12.25;9.52;;;6.30;99.90;;;;;;5070981;28;20032;-50
2022/11/18 04:39:00;;;;;;;9.18;8.27;;;6.40;99.90;;;;;;5070911;28;20035;-50
2022/11/18 04:41:54;;;;;;;13.10;8.48;;;6.40;99.90;;;;;;5070832;28;20107;-51
2022/11/18 04:44:13;;;;;;;9.18;8.27;;;6.40;99.90;;;;;;5070893;28;20029;-50
2022/11/18 04:46:41;;;;;;;12.55;9.40;;;6.40;99.90;;;;;;5070537;28;20020;-51
2022/11/18 04:49:08;;;;;;;15.93;9.77;;;6.30;99.90;;;;;;5070914;28;20067;-50
2022/11/18 04:51:34;;;;;;;13.45;10.10;;;6.30;99.90;;;;;;5070678;28;20078;-49
2022/11/18 04:54:00;;;;;;;10.70;8.38;;;6.30;99.90;;;;;;5073842;28;20025;-53
2022/11/18 04:56:25;;;;;;;11.77;9.15;;;6.30;99.90;;;;;;5074390;28;20016;-53
2022/11/18 04:58:51;;;;;;;11.80;8.73;;;6.40;99.90;;;;;;5072989;28;20501;-53
2022/11/18 05:01:17;;;;;;;9.25;8.25;;;6.40;99.90;;;;;;5074192;28;20110;-55
2022/11/18 05:03:42;;;;;;;10.35;8.43;;;6.40;99.90;;;;;;5074077;28;20714;-54
2022/11/18 05:06:08;;;;;;;12.45;8.73;;;6.50;99.90;;;;;;5072942;28;20119;-52
2022/11/18 05:08:33;;;;;;;8.70;7.80;;;6.50;99.90;;;;;;5073982;28;20025;-51
2022/11/18 05:13:45;;;;;;;8.35;7.55;;;6.40;99.90;;;;;;5062421;28;20028;-51
2022/11/18 05:16:10;;;;;;;9.75;8.18;;;6.50;99.90;;;;;;5073682;28;20132;-51
2022/11/18 05:18:36;;;;;;;10.40;7.63;;;6.50;99.90;;;;;;5072541;28;20710;-51
2022/11/18 05:21:05;;;;;;;9.38;7.63;;;6.60;99.90;;;;;;5073876;28;20064;-51
2022/11/18 05:23:31;;;;;;;11.73;8.00;;;6.60;99.90;;;;;;5073813;28;20031;-53
2022/11/18 05:25:56;;;;;;;10.63;8.23;;;6.50;99.90;;;;;;5073679;28;20456;-51
2022/11/18 05:29:02;;;;;;;11.20;7.53;;;6.50;99.90;;;;;;5073818;28;20021;-50
2022/11/18 05:31:28;;;;;;;9.93;8.13;;;6.50;99.90;;;;;;5073801;28;20020;-55
2022/11/18 05:33:54;;;;;;;9.50;8.32;;;6.50;99.90;;;;;;5071875;28;20035;-50
2022/11/18 05:36:21;;;;;;;10.25;8.60;;;6.60;99.90;;;;;;5073670;28;20365;-51
2022/11/18 05:38:47;;;;;;;10.77;8.05;;;6.60;99.90;;;;;;5073383;28;20024;-51
2022/11/18 05:43:58;;;;;;;13.15;7.85;;;6.60;99.90;;;;;;5073501;28;20124;-53
2022/11/18 05:46:24;;;;;;;10.15;7.72;;;6.60;99.90;;;;;;5073551;28;20111;-54
2022/11/18 05:48:49;;;;;;;9.98;7.82;;;6.70;99.90;;;;;;5073197;28;20040;-50
2022/11/18 05:51:16;;;;;;;9.13;8.23;;;6.70;99.90;;;;;;5073299;28;20421;-54
2022/11/18 05:53:41;;;;;;;15.13;8.88;;;6.70;99.90;;;;;;5072806;28;20028;-50
2022/11/18 05:56:28;;;;;;;14.15;8.05;;;6.70;99.90;;;;;;5070551;28;20179;-49
2022/11/18 05:58:54;;;;;;;9.02;7.35;;;6.80;99.90;;;;;;5085619;28;20434;-48
2022/11/18 06:01:43;;;;;;;10.85;7.55;;;6.90;99.90;;;;;;5092004;28;20020;-50
2022/11/18 06:04:24;;;;;;;8.80;7.53;;;6.90;99.90;;;;;;5070529;28;20037;-51
2022/11/18 06:06:52;;;;;;;9.73;7.65;;;6.90;99.90;;;;;;5071220;28;20032;-50
2022/11/18 06:09:22;;;;;;;11.20;7.72;;;6.90;99.90;;;;;;5071629;28;20396;-49
2022/11/18 06:11:54;;;;;;;8.30;7.03;;;6.90;99.90;;;;;;5071270;28;20031;-50
2022/11/18 06:14:40;;;;;;;9.60;7.97;;;6.90;99.90;;;;;;5071162;28;20085;-49
2022/11/18 06:17:10;;;;;;;9.88;8.38;;;6.90;99.90;;;;;;5071491;28;20071;-50
2022/11/18 06:19:36;;;;;;;14.40;8.00;;;6.90;99.90;;;;;;5071204;28;20036;-49
2022/11/18 06:22:03;;;;;;;8.23;7.45;;;6.90;99.90;;;;;;5071213;28;20508;-49
2022/11/18 06:24:29;;;;;;;11.00;8.18;;;6.90;99.90;;;;;;5071284;28;20025;-49
2022/11/18 06:26:54;;;;;;;12.10;7.05;;;6.90;99.90;;;;;;5070841;28;20434;-52
2022/11/18 06:29:21;;;;;;;9.65;6.57;;;6.90;99.90;;;;;;5070989;28;20048;-50
2022/11/18 06:31:47;;;;;;;83.47;35.20;;;6.90;99.90;;;;;;5070830;28;20368;-50
2022/11/18 06:34:13;;;;;;;9.75;6.72;;;7.00;99.90;;;;;;5070810;28;20135;-51
2022/11/18 06:36:38;;;;;;;7.20;5.78;;;7.00;99.90;;;;;;5076216;28;20035;-49
2022/11/18 06:39:05;;;;;;;6.75;5.65;;;7.10;99.90;;;;;;5091260;28;20024;-50
2022/11/18 06:41:31;;;;;;;11.75;8.45;;;7.20;99.90;;;;;;5091511;28;20024;-50
2022/11/18 06:43:57;;;;;;;19.88;12.30;;;7.10;99.90;;;;;;5091234;28;20027;-50
2022/11/18 06:49:07;;;;;;;4.75;4.35;;;7.20;99.90;;;;;;5091065;28;20085;-49
2022/11/18 06:51:32;;;;;;;4.43;4.03;;;7.20;99.90;;;;;;5090436;28;20028;-49
2022/11/18 06:53:58;;;;;;;3.78;3.20;;;7.30;99.90;;;;;;5090912;28;20058;-50
2022/11/18 06:56:24;;;;;;;2.60;2.40;;;7.30;99.90;;;;;;5090843;28;20034;-49
2022/11/18 06:58:54;;;;;;;2.55;2.10;;;7.30;99.90;;;;;;5072728;28;20024;-52
2022/11/18 07:01:24;;;;;;;2.80;2.60;;;7.30;99.90;;;;;;5070470;28;20071;-49
2022/11/18 07:03:51;;;;;;;2.45;2.25;;;7.20;99.90;;;;;;5070517;28;20435;-50
2022/11/18 07:06:22;;;;;;;2.50;2.30;;;7.20;99.90;;;;;;5070420;28;20025;-51
2022/11/18 07:08:47;;;;;;;2.30;2.20;;;7.10;99.90;;;;;;5070404;28;20027;-50
2022/11/18 07:11:16;;;;;;;2.58;2.38;;;7.10;99.90;;;;;;5070209;28;20016;-51
2022/11/18 07:13:42;;;;;;;2.53;2.33;;;7.10;99.90;;;;;;5070160;28;20012;-49
2022/11/18 07:16:13;;;;;;;2.00;1.90;;;7.10;99.90;;;;;;5069533;28;20492;-51
2022/11/18 07:18:43;;;;;;;2.58;2.38;;;7.10;99.90;;;;;;5069989;28;20040;-50
2022/11/18 07:21:14;;;;;;;2.80;2.60;;;7.00;99.90;;;;;;5068813;28;20039;-52
2022/11/18 07:23:40;;;;;;;3.03;2.83;;;7.00;99.90;;;;;;5070154;28;20021;-50
2022/11/18 07:26:06;;;;;;;2.00;1.90;;;7.00;99.90;;;;;;5070092;28;20025;-50
2022/11/18 07:28:32;;;;;;;2.38;2.28;;;7.00;99.90;;;;;;5070272;28;20023;-50
2022/11/18 07:31:07;;;;;;;2.75;2.55;;;7.00;99.90;;;;;;5070333;28;20017;-50
2022/11/18 07:33:34;;;;;;;4.70;3.20;;;7.00;99.90;;;;;;5070102;28;20032;-50
2022/11/18 07:36:07;;;;;;;2.10;2.00;;;7.00;99.90;;;;;;5070215;28;20045;-50
2022/11/18 07:38:33;;;;;;;2.28;2.10;;;7.00;99.90;;;;;;5070057;28;20506;-48
2022/11/18 07:41:05;;;;;;;2.88;1.95;;;7.10;99.90;;;;;;5070033;28;20029;-50
2022/11/18 07:43:33;;;;;;;4.57;1.70;;;7.10;99.90;;;;;;5070317;28;20476;-50
2022/11/18 07:46:07;;;;;;;2.47;2.22;;;7.10;99.90;;;;;;5070372;28;20053;-54
2022/11/18 07:48:32;;;;;;;1.50;1.40;;;7.00;99.90;;;;;;5070723;28;20021;-57
2022/11/18 07:51:00;;;;;;;1.45;1.45;;;7.00;99.90;;;;;;5069887;28;20096;-49
2022/11/18 07:53:25;;;;;;;1.88;1.70;;;7.00;99.90;;;;;;5069998;28;20025;-49
2022/11/18 07:55:53;;;;;;;1.90;1.80;;;7.00;99.90;;;;;;5069867;28;20499;-49
2022/11/18 07:58:18;;;;;;;2.20;2.00;;;6.90;99.90;;;;;;5069925;28;20031;-52
2022/11/18 08:00:44;;;;;;;2.30;2.10;;;6.90;99.90;;;;;;5068666;28;20387;-50
2022/11/18 08:03:10;;;;;;;2.83;2.63;;;6.90;99.90;;;;;;5068708;28;20021;-49
2022/11/18 08:05:35;;;;;;;3.45;3.25;;;7.00;99.90;;;;;;5069814;28;20032;-49
2022/11/18 08:08:01;;;;;;;7.85;2.60;;;7.00;99.90;;;;;;5068507;28;20028;-49
2022/11/18 08:10:26;;;;;;;3.08;2.53;;;7.00;99.90;;;;;;5068620;28;20028;-52
2022/11/18 08:12:52;;;;;;;3.25;2.55;;;7.00;99.90;;;;;;5050893;28;20025;-51
2022/11/18 08:15:18;;;;;;;9.75;3.10;;;7.10;99.90;;;;;;5089831;28;20020;-52
2022/11/18 08:17:43;;;;;;;3.58;3.28;;;7.10;99.90;;;;;;5089642;28;20024;-53
2022/11/18 08:20:10;;;;;;;2.92;2.30;;;7.10;99.90;;;;;;5085306;28;20032;-51
2022/11/18 08:22:35;;;;;;;13.95;10.48;;;7.10;99.90;;;;;;5089454;28;20028;-49
2022/11/18 08:25:01;;;;;;;10.95;7.88;;;7.10;99.90;;;;;;5089973;28;20028;-51
2022/11/18 08:27:26;;;;;;;3.85;2.97;;;7.10;99.90;;;;;;5090709;28;20028;-51
2022/11/18 08:29:52;;;;;;;14.77;10.63;;;7.10;99.90;;;;;;5093541;28;20028;-50
2022/11/18 08:32:18;;;;;;;12.93;8.52;;;7.10;99.90;;;;;;5093853;28;20037;-50
2022/11/18 08:34:43;;;;;;;3.45;3.03;;;7.10;99.90;;;;;;5093251;28;20020;-48
2022/11/18 08:37:09;;;;;;;2.35;2.15;;;7.20;99.90;;;;;;5093628;28;20117;-50
2022/11/18 08:39:35;;;;;;;2.83;2.53;;;7.20;99.90;;;;;;5093322;28;20111;-49
2022/11/18 08:42:00;;;;;;;3.67;3.38;;;7.30;99.90;;;;;;5093779;28;20110;-49
2022/11/18 08:44:26;;;;;;;8.02;7.20;;;7.20;99.90;;;;;;5093556;28;20023;-51
2022/11/18 08:46:51;;;;;;;8.82;6.65;;;7.30;99.90;;;;;;5093218;28;20035;-51
2022/11/18 08:49:17;;;;;;;3.05;2.50;;;7.20;99.90;;;;;;5093327;28;20016;-52
2022/11/18 08:51:43;;;;;;;2.60;2.40;;;7.30;99.90;;;;;;5083164;28;20462;-53
2022/11/18 08:54:08;;;;;;;4.93;4.43;;;7.40;99.90;;;;;;5073041;28;20028;-48
2022/11/18 08:56:34;;;;;;;3.75;2.30;;;7.40;99.90;;;;;;5071455;28;20031;-52
2022/11/18 08:59:00;;;;;;;5.18;4.68;;;7.50;99.90;;;;;;5073032;28;20028;-54
2022/11/18 09:01:26;;;;;;;5.70;5.05;;;7.50;99.90;;;;;;5072869;28;20407;-49
2022/11/18 09:03:52;;;;;;;2.53;2.33;;;7.50;99.90;;;;;;5092213;28;20532;-49
2022/11/18 09:06:20;;;;;;;2.10;1.90;;;7.50;99.90;;;;;;5092978;28;20122;-50
2022/11/18 09:08:46;;;;;;;3.38;3.08;;;7.60;99.90;;;;;;5092973;28;20035;-49
2022/11/18 09:11:15;;;;;;;2.30;2.08;;;7.70;99.90;;;;;;5091843;28;20016;-49
2022/11/18 09:13:41;;;;;;;7.20;6.22;;;7.80;99.90;;;;;;5092781;28;20518;-49
2022/11/18 09:16:07;;;;;;;11.30;7.97;;;7.90;99.90;;;;;;5093110;28;20020;-50
2022/11/18 09:18:33;;;;;;;2.35;2.25;;;7.90;99.90;;;;;;5092511;28;20441;-50
2022/11/18 09:21:01;;;;;;;5.43;3.85;;;7.90;99.90;;;;;;5092773;28;20016;-52
2022/11/18 09:23:27;;;;;;;2.35;2.25;;;7.90;99.90;;;;;;5092731;28;20020;-49
2022/11/18 09:26:18;;;;;;;3.95;3.42;;;7.90;99.90;;;;;;5092544;28;20107;-51
2022/11/18 09:28:43;;;;;;;2.70;1.95;;;7.90;99.90;;;;;;5089604;28;20032;-49
2022/11/18 09:31:12;;;;;;;6.03;2.10;;;7.90;99.90;;;;;;5092580;28;20017;-50
2022/11/18 09:33:38;;;;;;;2.05;1.95;;;8.00;99.90;;;;;;5092317;28;20386;-48
2022/11/18 09:36:10;;;;;;;4.97;4.50;;;8.10;99.90;;;;;;5092544;28;20052;-49
2022/11/18 09:38:35;;;;;;;6.05;1.70;;;8.00;99.90;;;;;;5091809;28;20023;-49
2022/11/18 09:41:19;;;;;;;2.17;1.45;;;8.10;99.90;;;;;;5091971;28;20020;-49
2022/11/18 09:43:48;;;;;;;5.00;1.52;;;8.20;99.90;;;;;;5092360;28;20042;-49
2022/11/18 09:46:32;;;;;;;1.58;1.48;;;8.10;99.90;;;;;;5092369;28;20489;-49
2022/11/18 09:49:36;;;;;;;1.40;1.40;;;8.20;99.90;;;;;;5092246;28;20050;-48
2022/11/18 09:52:04;;;;;;;1.75;1.60;;;8.20;99.90;;;;;;5078043;28;20033;-49
2022/11/18 09:54:33;;;;;;;1.75;1.65;;;8.20;99.90;;;;;;5071925;28;20086;-50
2022/11/18 09:57:00;;;;;;;1.67;1.50;;;8.40;99.90;;;;;;5071736;28;20028;-50
2022/11/18 09:59:31;;;;;;;1.58;1.48;;;8.40;99.90;;;;;;5071683;28;20075;-50
2022/11/18 10:02:21;;;;;;;1.95;1.65;;;8.50;99.90;;;;;;5071693;28;20040;-49
2022/11/18 10:04:47;;;;;;;1.67;1.58;;;8.60;99.90;;;;;;5071884;28;20669;-51
2022/11/18 10:07:33;;;;;;;2.60;2.10;;;8.50;99.90;;;;;;5071673;28;20563;-52
2022/11/18 10:10:03;;;;;;;1.83;1.40;;;8.40;99.90;;;;;;5071825;28;20017;-49
2022/11/18 10:12:54;;;;;;;6.18;3.38;;;8.60;99.90;;;;;;5071476;28;20098;-51
2022/11/18 10:15:38;;;;;;;3.58;1.80;;;8.50;99.90;;;;;;5071709;28;20495;-50
2022/11/18 10:18:36;;;;;;;6.72;6.00;;;8.50;99.90;;;;;;5071416;28;20033;-50
2022/11/18 10:21:16;;;;;;;2.00;1.90;;;8.50;99.90;;;;;;5037230;28;20467;-51
2022/11/18 10:23:51;;;;;;;7.03;3.97;;;8.50;99.90;;;;;;5071251;28;20021;-50
2022/11/18 10:26:40;;;;;;;3.42;3.10;;;8.60;99.90;;;;;;5071297;28;20017;-50
2022/11/18 10:29:08;;;;;;;2.42;2.22;;;8.50;99.90;;;;;;5071423;28;20017;-49
2022/11/18 10:32:09;;;;;;;3.35;1.70;;;8.40;99.90;;;;;;5069829;28;20471;-51
2022/11/18 10:34:46;;;;;;;2.85;2.65;;;8.40;99.90;;;;;;5067951;28;20029;-52
2022/11/18 10:37:30;;;;;;;1.98;1.88;;;8.30;99.90;;;;;;5071213;28;20036;-49
2022/11/18 10:39:58;;;;;;;1.55;1.45;;;8.20;99.90;;;;;;5070688;28;20020;-49
2022/11/18 10:42:42;;;;;;;3.70;1.42;;;8.10;99.90;;;;;;5070535;28;20388;-49
2022/11/18 10:45:31;;;;;;;1.65;1.55;;;8.10;99.90;;;;;;5070928;28;20035;-51
2022/11/18 10:48:18;;;;;;;1.80;1.70;;;8.10;99.90;;;;;;5070662;28;20391;-49
2022/11/18 10:50:47;;;;;;;2.05;1.85;;;8.00;99.90;;;;;;5070556;28;20372;-50
2022/11/18 10:53:33;;;;;;;1.67;1.58;;;8.10;99.90;;;;;;5070788;28;20008;-51
2022/11/18 10:56:10;;;;;;;1.60;1.50;;;8.20;99.90;;;;;;5087890;28;20058;-52
2022/11/18 10:58:41;;;;;;;1.27;1.27;;;8.30;99.90;;;;;;5090797;28;20031;-49
2022/11/18 11:01:13;;;;;;;1.42;1.35;;;8.30;99.90;;;;;;5089657;28;20024;-50
2022/11/18 11:03:41;;;;;;;1.40;1.40;;;8.20;99.90;;;;;;5090690;28;20062;-50
2022/11/18 11:06:14;;;;;;;1.05;1.05;;;8.20;99.90;;;;;;5090813;28;20133;-49
2022/11/18 11:08:55;;;;;;;1.35;1.35;;;8.30;99.90;;;;;;5090560;28;20077;-51
2022/11/18 11:11:32;;;;;;;1.30;1.20;;;8.30;99.90;;;;;;5090463;28;20035;-50
2022/11/18 11:14:17;;;;;;;1.48;1.40;;;8.40;99.90;;;;;;5089536;28;20099;-50
2022/11/18 11:17:11;;;;;;;1.98;1.20;;;8.40;99.90;;;;;;5089420;28;20035;-49
2022/11/18 11:19:59;;;;;;;1.60;1.50;;;8.30;99.90;;;;;;5089311;28;20059;-48
2022/11/18 11:22:25;;;;;;;3.30;1.58;;;8.30;99.90;;;;;;5090703;28;20051;-51
2022/11/18 11:24:50;;;;;;;1.65;1.55;;;8.30;99.90;;;;;;5090603;28;20478;-49
2022/11/18 11:27:23;;;;;;;1.30;1.20;;;8.30;99.90;;;;;;5089408;28;20023;-48
2022/11/18 11:30:01;;;;;;;2.08;1.98;;;8.30;99.90;;;;;;5085862;28;20020;-51
2022/11/18 11:32:33;;;;;;;3.75;3.20;;;8.30;99.90;;;;;;5081013;28;20029;-51
2022/11/18 11:35:10;;;;;;;2.42;1.85;;;8.40;99.90;;;;;;5070325;28;20024;-49
2022/11/18 11:37:57;;;;;;;1.60;1.50;;;8.40;99.90;;;;;;5086774;28;20070;-52
2022/11/18 11:40:35;;;;;;;2.72;1.50;;;8.40;99.90;;;;;;5090704;28;20593;-50
2022/11/18 11:43:19;;;;;;;5.70;3.45;;;8.40;99.90;;;;;;5090850;28;20635;-50
2022/11/18 11:45:51;;;;;;;4.65;3.53;;;8.40;99.90;;;;;;5090163;28;20063;-53
2022/11/18 11:48:32;;;;;;;2.72;2.42;;;8.40;99.90;;;;;;5084807;28;20583;-49
2022/11/18 11:51:04;;;;;;;7.85;4.18;;;8.40;99.90;;;;;;5070104;28;20071;-50
2022/11/18 11:53:47;;;;;;;4.30;2.92;;;8.30;99.90;;;;;;5070202;28;20074;-53
2022/11/18 11:56:51;;;;;;;2.35;2.15;;;8.30;99.90;;;;;;5070044;28;20032;-51
2022/11/18 11:59:32;;;;;;;2.05;1.65;;;8.40;99.90;;;;;;5068869;28;20032;-49
2022/11/18 12:02:13;;;;;;;7.00;5.65;;;8.30;99.90;;;;;;5069729;28;20023;-51
2022/11/18 12:04:45;;;;;;;2.45;2.25;;;8.30;99.90;;;;;;5073949;28;20024;-54
2022/11/18 12:07:38;;;;;;;9.43;7.35;;;8.40;99.90;;;;;;5073860;28;20484;-49
2022/11/18 12:10:28;;;;;;;6.63;4.53;;;8.40;99.90;;;;;;5073437;28;20378;-50
2022/11/18 12:13:28;;;;;;;9.25;5.80;;;8.40;99.90;;;;;;5072929;28;20031;-51
2022/11/18 12:16:17;;;;;;;2.22;1.92;;;8.50;99.90;;;;;;5061761;28;20032;-54
2022/11/18 12:18:50;;;;;;;1.63;1.52;;;8.50;99.90;;;;;;5062247;28;20059;-49
2022/11/18 12:21:46;;;;;;;9.43;6.63;;;8.40;99.90;;;;;;5062374;28;20112;-50
2022/11/18 12:24:35;;;;;;;11.45;7.15;;;8.40;99.90;;;;;;5062764;28;20067;-49
2022/11/18 12:27:05;;;;;;;4.65;3.88;;;8.40;99.90;;;;;;5062642;28;20074;-50
2022/11/18 12:29:35;;;;;;;8.05;5.43;;;8.40;99.90;;;;;;5077641;28;20040;-49
2022/11/18 12:32:01;;;;;;;10.25;6.72;;;8.40;99.90;;;;;;5062368;28;20032;-49
2022/11/18 12:34:29;;;;;;;2.65;2.30;;;8.40;99.90;;;;;;5061538;28;20024;-49
2022/11/18 12:36:55;;;;;;;4.63;2.63;;;8.40;99.90;;;;;;5061934;28;20040;-53
2022/11/18 12:39:26;;;;;;;2.33;2.13;;;8.30;99.90;;;;;;5062590;28;20069;-49
2022/11/18 12:44:51;;;;;;;4.32;3.10;;;8.40;99.90;;;;;;5061524;28;22848;-48
2022/11/18 12:47:39;;;;;;;3.00;2.22;;;8.40;99.90;;;;;;5062276;28;20053;-51
2022/11/18 12:50:14;;;;;;;2.53;1.90;;;8.40;99.90;;;;;;5062031;28;20407;-50
2022/11/18 12:52:39;;;;;;;1.60;1.50;;;8.40;99.90;;;;;;5062491;28;20079;-52
2022/11/18 12:55:22;;;;;;;2.03;1.83;;;8.40;99.90;;;;;;5062048;28;20092;-50
2022/11/18 12:57:48;;;;;;;3.15;2.85;;;8.20;99.90;;;;;;5061567;28;20074;-50
2022/11/18 13:00:24;;;;;;;2.75;2.33;;;8.20;99.90;;;;;;5061872;28;20068;-49
2022/11/18 13:02:55;;;;;;;7.63;4.75;;;8.30;99.90;;;;;;5061336;28;20082;-49
2022/11/18 13:05:31;;;;;;;10.98;3.10;;;8.10;99.90;;;;;;5061131;28;20090;-54
2022/11/18 13:08:12;;;;;;;5.40;1.52;;;8.10;99.90;;;;;;5061611;28;20024;-51
2022/11/18 13:19:22;;;;;;;8.65;5.65;;;7.90;99.90;;;;;;5061453;28;20082;-50
2022/11/18 13:24:49;;;;;;;5.80;2.47;;;7.80;99.90;;;;;;5061820;28;20334;-51
2022/11/18 13:27:24;;;;;;;3.45;2.60;;;7.90;99.90;;;;;;5060930;28;20043;-51
2022/11/18 13:30:00;;;;;;;4.53;3.17;;;7.80;99.90;;;;;;5061002;28;20052;-51
2022/11/18 13:32:27;;;;;;;2.88;2.65;;;7.80;99.90;;;;;;5059989;28;20571;-51
2022/11/18 13:35:01;;;;;;;13.70;8.68;;;7.70;99.90;;;;;;5062050;28;20025;-51
2022/11/18 13:37:29;;;;;;;7.82;4.30;;;7.70;99.90;;;;;;5060995;28;20056;-48
2022/11/18 13:39:55;;;;;;;4.50;3.45;;;7.70;99.90;;;;;;5060667;28;20024;-51
2022/11/18 13:42:26;;;;;;;3.28;2.50;;;7.70;99.90;;;;;;5060437;28;20040;-50
2022/11/18 13:44:53;;;;;;;19.40;9.30;;;7.80;99.90;;;;;;5061116;28;20038;-50